createdAt,value
2018-04-29T00:00:48.413Z,2.90
2018-04-29T00:03:18.443Z,2.93
2018-04-29T00:05:46.749Z,3.10
2018-04-29T00:08:16.921Z,3.10
2018-04-29T00:10:45.185Z,3.60
2018-04-29T00:13:13.427Z,3.50
2018-04-29T00:15:41.665Z,3.20
2018-04-29T00:18:10.964Z,3.60
2018-04-29T00:20:39.171Z,3.30
2018-04-29T00:23:09.187Z,3.30
2018-04-29T00:25:38.208Z,2.77
2018-04-29T00:28:06.455Z,3.30
2018-04-29T00:30:35.464Z,3.20
2018-04-29T00:33:04.486Z,2.77
2018-04-29T00:35:32.748Z,3.23
2018-04-29T00:38:01.744Z,3.00
2018-04-29T00:40:30.012Z,3.30
2018-04-29T00:42:59.012Z,3.20
2018-04-29T00:45:28.033Z,2.87
2018-04-29T00:47:56.281Z,3.23
2018-04-29T00:50:25.323Z,3.07
2018-04-29T00:52:54.309Z,3.87
2018-04-29T00:55:22.558Z,2.90
2018-04-29T00:57:50.877Z,3.20
2018-04-29T01:00:19.140Z,3.37
2018-04-29T01:02:47.399Z,3.47
2018-04-29T01:05:16.430Z,3.10
2018-04-29T01:07:44.662Z,3.20
2018-04-29T01:10:12.911Z,3.80
2018-04-29T01:12:41.160Z,3.50
2018-04-29T01:15:10.235Z,3.27
2018-04-29T01:17:38.681Z,3.27
2018-04-29T01:20:06.947Z,3.60
2018-04-29T01:22:35.175Z,4.00
2018-04-29T01:25:03.424Z,3.27
2018-04-29T01:27:31.672Z,3.67
2018-04-29T01:29:59.946Z,3.17
2018-04-29T01:32:28.195Z,3.87
2018-04-29T01:34:57.217Z,3.90
2018-04-29T01:37:25.474Z,3.90
2018-04-29T01:39:53.721Z,4.27
2018-04-29T01:42:21.960Z,3.70
2018-04-29T01:44:50.228Z,4.13
2018-04-29T01:47:19.238Z,3.63
2018-04-29T01:49:47.494Z,3.43
2018-04-29T01:52:15.765Z,4.57
2018-04-29T01:54:44.006Z,3.27
2018-04-29T01:57:12.311Z,3.80
2018-04-29T01:59:40.540Z,4.00
2018-04-29T02:02:08.784Z,4.30
2018-04-29T02:04:37.810Z,3.40
2018-04-29T02:07:06.809Z,3.70
2018-04-29T02:09:35.064Z,4.20
2018-04-29T02:12:03.296Z,6.60
2018-04-29T02:14:31.569Z,4.50
2018-04-29T02:16:59.806Z,4.87
2018-04-29T02:19:28.064Z,4.17
2018-04-29T02:21:56.356Z,3.73
2018-04-29T02:24:24.577Z,5.03
2018-04-29T02:26:52.851Z,4.40
2018-04-29T02:29:21.872Z,4.10
2018-04-29T02:31:50.112Z,6.17
2018-04-29T02:34:19.116Z,3.97
2018-04-29T02:36:48.160Z,5.10
2018-04-29T02:39:16.472Z,4.40
2018-04-29T02:41:44.691Z,5.80
2018-04-29T02:44:12.929Z,5.17
2018-04-29T02:46:41.206Z,4.50
2018-04-29T02:49:10.952Z,3.77
2018-04-29T02:51:39.976Z,3.20
2018-04-29T02:54:08.232Z,3.67
2018-04-29T02:56:37.224Z,3.20
2018-04-29T02:59:06.217Z,4.00
2018-04-29T03:01:35.236Z,3.07
2018-04-29T03:04:04.542Z,4.40
2018-04-29T03:06:33.524Z,3.47
2018-04-29T03:09:02.520Z,3.27
2018-04-29T03:11:31.541Z,3.20
2018-04-29T03:13:59.810Z,3.50
2018-04-29T03:16:28.060Z,3.73
2018-04-29T03:18:56.306Z,4.00
2018-04-29T03:21:24.537Z,4.13
2018-04-29T03:23:53.545Z,5.10
2018-04-29T03:26:21.799Z,5.20
2018-04-29T03:28:50.812Z,5.53
2018-04-29T03:31:19.812Z,4.53
2018-04-29T03:33:48.808Z,4.30
2018-04-29T03:36:17.836Z,4.20
2018-04-29T03:38:46.070Z,3.50
2018-04-29T03:41:15.085Z,3.67
2018-04-29T03:43:44.152Z,4.70
2018-04-29T03:46:12.359Z,6.00
2018-04-29T03:48:41.375Z,5.30
2018-04-29T03:51:09.631Z,4.30
2018-04-29T03:53:38.837Z,5.50
2018-04-29T03:56:07.876Z,5.67
2018-04-29T03:58:48.037Z,5.17
2018-04-29T04:01:28.320Z,4.50
2018-04-29T04:04:00.416Z,4.20
2018-04-29T04:06:29.397Z,3.87
2018-04-29T04:08:58.457Z,5.33
2018-04-29T04:11:27.417Z,4.70
2018-04-29T04:13:55.681Z,4.23
2018-04-29T04:16:23.947Z,4.50
2018-04-29T04:18:52.220Z,4.83
2018-04-29T04:21:20.453Z,3.40
2018-04-29T04:23:48.789Z,4.43
2018-04-29T04:26:17.696Z,4.80
2018-04-29T04:28:46.055Z,4.37
2018-04-29T04:31:14.286Z,5.03
2018-04-29T04:33:42.532Z,4.53
2018-04-29T04:36:10.847Z,5.40
2018-04-29T04:38:39.128Z,5.13
2018-04-29T04:41:07.356Z,5.10
2018-04-29T04:43:35.607Z,5.13
2018-04-29T04:46:04.850Z,4.80
2018-04-29T04:48:34.613Z,4.20
2018-04-29T04:51:02.872Z,4.43
2018-04-29T04:53:31.116Z,5.00
2018-04-29T04:55:59.357Z,4.17
2018-04-29T04:58:27.625Z,4.83
2018-04-29T05:00:55.878Z,4.53
2018-04-29T05:03:24.889Z,4.63
2018-04-29T05:05:53.146Z,4.40
2018-04-29T05:08:22.155Z,4.40
2018-04-29T05:10:51.270Z,4.43
2018-04-29T05:13:19.539Z,4.50
2018-04-29T05:15:49.547Z,4.50
2018-04-29T05:18:18.571Z,5.30
2018-04-29T05:20:46.836Z,4.20
2018-04-29T05:23:15.853Z,3.97
2018-04-29T05:25:44.096Z,4.50
2018-04-29T05:28:13.133Z,4.23
2018-04-29T05:30:41.396Z,4.50
2018-04-29T05:33:10.466Z,5.17
2018-04-29T05:35:38.688Z,5.03
2018-04-29T05:38:06.936Z,4.33
2018-04-29T05:40:35.197Z,4.80
2018-04-29T05:43:03.468Z,5.07
2018-04-29T05:45:31.713Z,5.70
2018-04-29T05:48:00.021Z,7.47
2018-04-29T05:50:28.240Z,6.80
2018-04-29T05:52:57.284Z,6.40
2018-04-29T05:55:25.506Z,6.83
2018-04-29T05:57:53.888Z,6.53
2018-04-29T06:00:22.135Z,5.87
2018-04-29T06:02:51.158Z,5.83
2018-04-29T06:05:19.411Z,5.53
2018-04-29T06:07:47.634Z,5.93
2018-04-29T06:10:16.666Z,5.40
2018-04-29T06:12:45.785Z,5.37
2018-04-29T06:15:15.065Z,5.70
2018-04-29T06:17:43.304Z,6.53
2018-04-29T06:20:11.564Z,5.20
2018-04-29T06:22:39.796Z,5.60
2018-04-29T06:25:08.065Z,6.00
2018-04-29T06:27:37.088Z,5.50
2018-04-29T06:30:06.136Z,5.47
2018-04-29T06:32:34.365Z,5.20
2018-04-29T06:35:02.613Z,5.53
2018-04-29T06:37:31.636Z,5.43
2018-04-29T06:40:00.808Z,5.63
2018-04-29T06:42:29.851Z,5.67
2018-04-29T06:44:58.109Z,4.30
2018-04-29T06:47:27.200Z,4.53
2018-04-29T06:49:55.405Z,5.23
2018-04-29T06:52:23.676Z,4.60
2018-04-29T06:54:51.928Z,4.27
2018-04-29T06:57:20.939Z,4.60
2018-04-29T06:59:49.992Z,5.57
2018-04-29T07:02:18.215Z,5.13
2018-04-29T07:04:47.402Z,5.27
2018-04-29T07:07:16.434Z,6.17
2018-04-29T07:09:44.699Z,6.47
2018-04-29T07:12:13.052Z,5.80
2018-04-29T07:14:41.289Z,5.80
2018-04-29T07:17:10.598Z,6.10
2018-04-29T07:19:38.917Z,5.53
2018-04-29T07:22:07.125Z,5.47
2018-04-29T07:24:36.352Z,4.97
2018-04-29T07:27:04.593Z,4.87
2018-04-29T07:29:33.615Z,5.43
2018-04-29T07:32:01.873Z,6.20
2018-04-29T07:34:30.907Z,5.37
2018-04-29T07:36:59.143Z,4.53
2018-04-29T07:39:28.166Z,4.80
2018-04-29T07:41:56.429Z,5.30
2018-04-29T07:44:24.656Z,4.87
2018-04-29T07:46:52.896Z,5.80
2018-04-29T07:49:21.898Z,7.00
2018-04-29T07:51:51.904Z,6.20
2018-04-29T07:54:20.920Z,5.53
2018-04-29T07:56:49.177Z,5.53
2018-04-29T07:59:18.197Z,5.63
2018-04-29T08:01:46.454Z,5.40
2018-04-29T08:04:14.703Z,5.80
2018-04-29T08:06:42.978Z,5.40
2018-04-29T08:09:11.273Z,5.73
2018-04-29T08:11:39.524Z,6.33
2018-04-29T08:14:07.782Z,5.90
2018-04-29T08:16:36.790Z,6.47
2018-04-29T08:19:05.123Z,6.20
2018-04-29T08:21:33.360Z,5.83
2018-04-29T08:24:01.629Z,5.10
2018-04-29T08:26:29.893Z,5.57
2018-04-29T08:28:58.969Z,5.80
2018-04-29T08:31:28.225Z,4.97
2018-04-29T08:33:57.427Z,5.23
2018-04-29T08:36:25.666Z,4.70
2018-04-29T08:38:54.668Z,5.03
2018-04-29T08:41:23.692Z,4.60
2018-04-29T08:43:52.886Z,4.77
2018-04-29T08:46:21.174Z,4.50
2018-04-29T08:48:50.203Z,5.03
2018-04-29T08:51:18.437Z,5.30
2018-04-29T08:53:47.466Z,5.70
2018-04-29T08:56:15.694Z,4.80
2018-04-29T08:58:43.968Z,4.90
2018-04-29T09:01:13.178Z,5.10
2018-04-29T09:03:42.329Z,4.90
2018-04-29T09:06:10.470Z,5.30
2018-04-29T09:08:39.493Z,5.03
2018-04-29T09:11:07.743Z,5.13
2018-04-29T09:13:36.043Z,4.90
2018-04-29T09:16:04.384Z,4.70
2018-04-29T09:18:32.657Z,5.00
2018-04-29T09:21:01.041Z,5.10
2018-04-29T09:23:29.293Z,5.80
2018-04-29T09:25:57.556Z,6.27
2018-04-29T09:28:25.885Z,4.97
2018-04-29T09:30:54.128Z,4.80
2018-04-29T09:33:22.385Z,6.10
2018-04-29T09:35:51.409Z,4.80
2018-04-29T09:38:19.651Z,5.60
2018-04-29T09:40:48.713Z,5.47
2018-04-29T09:43:16.950Z,5.27
2018-04-29T09:45:45.187Z,5.97
2018-04-29T09:48:14.198Z,5.93
2018-04-29T09:50:43.214Z,6.93
2018-04-29T09:53:11.461Z,6.63
2018-04-29T09:55:39.736Z,6.90
2018-04-29T09:58:07.980Z,9.00
2018-04-29T10:00:36.227Z,5.93
2018-04-29T10:03:07.201Z,6.00
2018-04-29T10:05:35.461Z,5.97
2018-04-29T10:08:03.724Z,6.60
2018-04-29T10:10:31.972Z,6.40
2018-04-29T10:13:00.235Z,6.13
2018-04-29T10:15:28.517Z,6.00
2018-04-29T10:17:56.753Z,5.83
2018-04-29T10:20:25.764Z,5.50
2018-04-29T10:22:54.025Z,5.57
2018-04-29T10:25:24.065Z,5.80
2018-04-29T10:27:52.320Z,6.07
2018-04-29T10:30:21.334Z,4.90
2018-04-29T10:32:49.621Z,3.60
2018-04-29T10:35:18.640Z,3.10
2018-04-29T10:37:46.891Z,2.70
2018-04-29T10:40:15.154Z,3.07
2018-04-29T10:42:44.168Z,3.00
2018-04-29T10:45:12.417Z,3.60
2018-04-29T10:47:41.681Z,3.40
2018-04-29T10:50:09.930Z,2.90
2018-04-29T10:52:38.276Z,3.23
2018-04-29T10:55:06.534Z,3.67
2018-04-29T10:57:34.761Z,3.73
2018-04-29T11:00:04.820Z,3.20
2018-04-29T11:02:33.092Z,3.53
2018-04-29T11:05:01.420Z,2.80
2018-04-29T11:07:30.665Z,3.50
2018-04-29T11:09:58.907Z,3.53
2018-04-29T11:12:27.161Z,4.07
2018-04-29T11:14:55.412Z,3.50
2018-04-29T11:17:23.660Z,3.87
2018-04-29T11:19:52.664Z,3.00
2018-04-29T11:22:21.738Z,3.57
2018-04-29T11:24:49.956Z,2.53
2018-04-29T11:27:18.969Z,3.20
2018-04-29T11:29:47.236Z,1.90
2018-04-29T11:32:16.270Z,2.90
2018-04-29T11:34:44.517Z,3.63
2018-04-29T11:37:12.781Z,2.23
2018-04-29T11:39:41.135Z,2.53
2018-04-29T11:42:09.386Z,2.90
2018-04-29T11:44:37.649Z,3.53
2018-04-29T11:47:05.917Z,3.43
2018-04-29T11:49:34.177Z,3.90
2018-04-29T11:52:03.202Z,3.10
2018-04-29T11:54:31.441Z,4.10
2018-04-29T11:56:59.764Z,4.00
2018-04-29T11:59:28.792Z,5.37
2018-04-29T12:01:57.060Z,6.03
2018-04-29T12:04:25.339Z,3.70
2018-04-29T12:06:53.621Z,3.93
2018-04-29T12:09:21.844Z,3.67
2018-04-29T12:11:50.112Z,4.37
2018-04-29T12:14:18.357Z,3.60
2018-04-29T12:16:46.600Z,3.67
2018-04-29T12:19:15.623Z,4.10
2018-04-29T12:21:43.870Z,5.20
2018-04-29T12:24:13.114Z,4.77
2018-04-29T12:26:41.341Z,4.47
2018-04-29T12:29:09.581Z,4.27
2018-04-29T12:31:37.840Z,4.13
2018-04-29T12:34:06.144Z,4.17
2018-04-29T12:36:34.416Z,4.20
2018-04-29T12:39:02.656Z,4.10
2018-04-29T12:41:30.938Z,6.77
2018-04-29T12:43:59.988Z,4.60
2018-04-29T12:46:28.323Z,5.93
2018-04-29T12:48:56.540Z,4.97
2018-04-29T12:51:24.820Z,4.70
2018-04-29T12:53:53.060Z,4.63
2018-04-29T12:56:22.091Z,3.97
2018-04-29T12:58:50.353Z,3.60
2018-04-29T13:01:19.470Z,3.77
2018-04-29T13:03:47.740Z,3.63
2018-04-29T13:06:15.991Z,4.57
2018-04-29T13:08:44.255Z,3.83
2018-04-29T13:11:12.576Z,3.70
2018-04-29T13:13:41.603Z,4.40
2018-04-29T13:16:09.889Z,3.90
2018-04-29T13:18:38.153Z,3.73
2018-04-29T13:21:06.409Z,4.00
2018-04-29T13:23:35.433Z,3.70
2018-04-29T13:26:03.705Z,3.37
2018-04-29T13:28:31.985Z,4.00
2018-04-29T13:31:00.236Z,2.50
2018-04-29T13:33:29.245Z,1.80
2018-04-29T13:35:58.263Z,2.70
2018-04-29T13:38:26.510Z,2.00
2018-04-29T13:40:55.559Z,3.13
2018-04-29T13:43:23.880Z,2.43
2018-04-29T13:45:52.193Z,2.27
2018-04-29T13:48:20.445Z,2.17
2018-04-29T13:50:48.719Z,2.60
2018-04-29T13:53:17.740Z,2.30
2018-04-29T13:55:46.768Z,2.50
2018-04-29T13:58:14.993Z,2.13
2018-04-29T14:00:43.265Z,2.17
2018-04-29T14:03:11.511Z,2.63
2018-04-29T14:05:39.773Z,2.77
2018-04-29T14:08:08.034Z,2.33
2018-04-29T14:10:37.120Z,2.40
2018-04-29T14:13:05.333Z,1.80
2018-04-29T14:15:34.344Z,2.30
2018-04-29T14:18:02.642Z,2.00
2018-04-29T14:20:30.906Z,2.07
2018-04-29T14:22:59.185Z,2.93
2018-04-29T14:25:27.475Z,2.70
2018-04-29T14:27:55.754Z,2.07
2018-04-29T14:30:24.049Z,2.77
2018-04-29T14:32:52.355Z,2.57
2018-04-29T14:35:20.598Z,1.80
2018-04-29T14:37:48.897Z,3.10
2018-04-29T14:40:17.160Z,2.80
2018-04-29T14:42:45.421Z,2.17
2018-04-29T14:45:13.689Z,1.90
2018-04-29T14:47:42.727Z,2.70
2018-04-29T14:50:11.007Z,2.93
2018-04-29T14:52:41.208Z,3.60
2018-04-29T14:55:09.463Z,3.10
2018-04-29T14:57:37.720Z,2.40
2018-04-29T15:00:05.970Z,2.30
2018-04-29T15:02:35.242Z,2.33
2018-04-29T15:05:03.507Z,2.50
2018-04-29T15:07:32.521Z,2.27
2018-04-29T15:10:00.773Z,2.73
2018-04-29T15:12:29.855Z,2.13
2018-04-29T15:14:58.057Z,3.00
2018-04-29T15:17:27.138Z,2.83
2018-04-29T15:19:55.557Z,2.67
2018-04-29T15:22:24.822Z,2.80
2018-04-29T15:24:53.053Z,2.50
2018-04-29T15:27:21.331Z,2.23
2018-04-29T15:29:49.612Z,2.93
2018-04-29T15:32:17.894Z,2.50
2018-04-29T15:34:46.161Z,2.03
2018-04-29T15:37:15.204Z,2.30
2018-04-29T15:39:43.519Z,2.90
2018-04-29T15:42:12.539Z,2.57
2018-04-29T15:44:42.579Z,2.83
2018-04-29T15:47:10.818Z,2.57
2018-04-29T15:49:39.883Z,2.43
2018-04-29T15:52:08.279Z,2.90
2018-04-29T15:54:38.148Z,2.67
2018-04-29T15:57:06.407Z,3.73
2018-04-29T15:59:35.437Z,2.70
2018-04-29T16:02:03.850Z,3.10
2018-04-29T16:04:32.117Z,3.00
2018-04-29T16:07:00.357Z,3.23
2018-04-29T16:09:28.628Z,2.73
2018-04-29T16:11:57.691Z,2.90
2018-04-29T16:14:25.944Z,3.57
2018-04-29T16:16:54.204Z,3.90
2018-04-29T16:19:22.513Z,3.20
2018-04-29T16:21:50.741Z,2.80
2018-04-29T16:24:19.772Z,2.80
2018-04-29T16:26:48.023Z,2.53
2018-04-29T16:29:16.294Z,3.47
2018-04-29T16:31:44.564Z,2.87
2018-04-29T16:34:12.841Z,3.57
2018-04-29T16:36:41.095Z,2.70
2018-04-29T16:39:09.356Z,6.50
2018-04-29T16:41:37.649Z,3.50
2018-04-29T16:44:05.922Z,2.97
2018-04-29T16:46:34.165Z,2.80
2018-04-29T16:49:03.300Z,2.73
2018-04-29T16:51:31.482Z,3.10
2018-04-29T16:53:59.728Z,2.97
2018-04-29T16:56:28.770Z,3.57
2018-04-29T16:58:57.013Z,2.97
2018-04-29T17:01:26.034Z,2.67
2018-04-29T17:03:54.297Z,3.37
2018-04-29T17:06:23.342Z,3.90
2018-04-29T17:08:51.577Z,2.70
2018-04-29T17:11:19.845Z,4.10
2018-04-29T17:13:48.256Z,3.93
2018-04-29T17:16:16.620Z,3.20
2018-04-29T17:18:45.700Z,3.30
2018-04-29T17:21:14.719Z,3.13
2018-04-29T17:23:42.991Z,3.70
2018-04-29T17:26:11.277Z,3.27
2018-04-29T17:28:39.522Z,3.27
2018-04-29T17:31:07.792Z,3.70
2018-04-29T17:33:36.053Z,4.10
2018-04-29T17:36:04.720Z,3.60
2018-04-29T17:38:33.111Z,3.27
2018-04-29T17:41:01.437Z,3.70
2018-04-29T17:43:30.469Z,2.83
2018-04-29T17:45:59.483Z,4.97
2018-04-29T17:48:27.725Z,3.30
2018-04-29T17:50:56.754Z,3.73
2018-04-29T17:53:25.065Z,4.07
2018-04-29T17:55:53.294Z,7.17
2018-04-29T17:58:22.291Z,4.10
2018-04-29T18:00:51.432Z,4.17
2018-04-29T18:03:19.688Z,4.23
2018-04-29T18:05:47.984Z,4.20
2018-04-29T18:08:16.236Z,5.00
2018-04-29T18:10:44.700Z,4.53
2018-04-29T18:13:12.989Z,4.90
2018-04-29T18:15:41.221Z,5.17
2018-04-29T18:18:09.499Z,5.73
2018-04-29T18:20:37.770Z,4.77
2018-04-29T18:23:06.040Z,6.17
2018-04-29T18:25:34.328Z,4.90
2018-04-29T18:28:02.586Z,4.97
2018-04-29T18:30:31.614Z,4.67
2018-04-29T18:32:59.886Z,5.83
2018-04-29T18:35:28.900Z,4.73
2018-04-29T18:37:57.181Z,5.20
2018-04-29T18:40:25.408Z,4.83
2018-04-29T18:42:54.316Z,4.03
2018-04-29T18:45:23.364Z,4.83
2018-04-29T18:47:51.596Z,4.13
2018-04-29T18:50:20.732Z,4.07
2018-04-29T18:52:49.045Z,3.83
2018-04-29T18:55:17.286Z,3.83
2018-04-29T18:57:46.285Z,3.93
2018-04-29T19:00:14.574Z,3.43
2018-04-29T19:02:42.945Z,4.40
2018-04-29T19:05:11.197Z,4.47
2018-04-29T19:07:40.228Z,4.17
2018-04-29T19:10:08.505Z,4.60
2018-04-29T19:12:36.750Z,4.93
2018-04-29T19:15:05.754Z,5.00
2018-04-29T19:17:34.759Z,4.27
2018-04-29T19:20:03.053Z,4.57
2018-04-29T19:22:31.311Z,7.13
2018-04-29T19:25:00.358Z,5.13
2018-04-29T19:27:28.629Z,4.73
2018-04-29T19:29:56.896Z,5.70
2018-04-29T19:32:25.149Z,5.27
2018-04-29T19:34:55.186Z,5.50
2018-04-29T19:37:24.171Z,5.63
2018-04-29T19:39:52.518Z,5.33
2018-04-29T19:42:20.783Z,5.77
2018-04-29T19:44:49.015Z,5.20
2018-04-29T19:47:17.325Z,6.40
2018-04-29T19:49:45.631Z,6.20
2018-04-29T19:52:13.874Z,6.70
2018-04-29T19:54:42.149Z,6.80
2018-04-29T19:57:11.144Z,5.57
2018-04-29T19:59:39.429Z,6.10
2018-04-29T20:02:07.690Z,6.73
2018-04-29T20:04:36.736Z,5.53
2018-04-29T20:07:04.981Z,6.03
2018-04-29T20:09:33.290Z,6.40
2018-04-29T20:12:01.536Z,5.63
2018-04-29T20:14:30.571Z,6.70
2018-04-29T20:16:58.796Z,5.80
2018-04-29T20:19:27.036Z,5.30
2018-04-29T20:21:55.294Z,5.43
2018-04-29T20:24:23.582Z,5.50
2018-04-29T20:26:51.852Z,5.40
2018-04-29T20:29:20.078Z,4.87
2018-04-29T20:31:49.866Z,5.10
2018-04-29T20:34:18.129Z,4.93
2018-04-29T20:36:46.397Z,4.90
2018-04-29T20:39:14.690Z,5.17
2018-04-29T20:41:43.688Z,6.20
2018-04-29T20:44:11.996Z,5.40
2018-04-29T20:46:40.216Z,5.47
2018-04-29T20:49:09.253Z,5.87
2018-04-29T20:51:37.534Z,5.33
2018-04-29T20:54:05.785Z,5.10
2018-04-29T20:56:34.811Z,5.03
2018-04-29T20:59:03.127Z,5.90
2018-04-29T21:01:32.192Z,4.80
2018-04-29T21:04:00.444Z,5.87
2018-04-29T21:06:28.705Z,5.00
2018-04-29T21:08:57.747Z,5.57
2018-04-29T21:11:26.032Z,4.67
2018-04-29T21:13:54.262Z,4.80
2018-04-29T21:16:22.628Z,4.40
2018-04-29T21:18:50.872Z,5.73
2018-04-29T21:21:19.132Z,4.43
2018-04-29T21:23:47.419Z,5.83
2018-04-29T21:26:15.659Z,5.00
2018-04-29T21:28:43.927Z,4.80
2018-04-29T21:31:12.168Z,5.50
2018-04-29T21:33:40.410Z,5.30
2018-04-29T21:36:09.499Z,6.20
2018-04-29T21:38:37.703Z,5.87
2018-04-29T21:41:06.905Z,5.93
2018-04-29T21:43:35.926Z,5.80
2018-04-29T21:46:04.189Z,5.90
2018-04-29T21:48:32.468Z,6.23
2018-04-29T21:51:00.719Z,6.60
2018-04-29T21:53:28.976Z,6.77
2018-04-29T21:55:57.241Z,6.30
2018-04-29T21:58:25.507Z,5.40
2018-04-29T22:00:53.737Z,6.37
2018-04-29T22:03:22.003Z,6.30
2018-04-29T22:05:50.251Z,5.60
2018-04-29T22:08:18.505Z,5.70
2018-04-29T22:10:46.808Z,7.03
2018-04-29T22:13:15.073Z,5.60
2018-04-29T22:15:43.380Z,6.30
2018-04-29T22:18:11.640Z,6.60
2018-04-29T22:20:39.903Z,6.70
2018-04-29T22:23:08.925Z,6.27
2018-04-29T22:25:37.189Z,7.50
2018-04-29T22:28:05.448Z,6.27
2018-04-29T22:30:34.487Z,6.70
2018-04-29T22:33:02.746Z,7.00
2018-04-29T22:35:31.837Z,6.07
2018-04-29T22:38:00.864Z,7.27
2018-04-29T22:40:29.108Z,6.87
2018-04-29T22:42:58.137Z,6.50
2018-04-29T22:45:26.398Z,7.17
2018-04-29T22:47:55.406Z,8.00
2018-04-29T22:50:24.667Z,7.63
2018-04-29T22:52:52.928Z,6.90
2018-04-29T22:55:21.168Z,7.50
2018-04-29T22:57:50.152Z,6.83
2018-04-29T23:00:19.186Z,8.40
2018-04-29T23:02:47.434Z,7.13
2018-04-29T23:05:15.719Z,8.37
2018-04-29T23:07:43.978Z,7.80
2018-04-29T23:10:12.235Z,8.17
2018-04-29T23:12:40.487Z,8.10
2018-04-29T23:15:08.745Z,8.50
2018-04-29T23:17:37.955Z,7.20
2018-04-29T23:20:06.962Z,8.23
2018-04-29T23:22:35.201Z,7.60
2018-04-29T23:25:04.797Z,7.13
2018-04-29T23:27:33.025Z,7.80
2018-04-29T23:30:01.316Z,7.23
2018-04-29T23:32:29.603Z,7.73
2018-04-29T23:34:57.871Z,10.07
2018-04-29T23:37:26.131Z,8.90
2018-04-29T23:39:55.160Z,11.00
2018-04-29T23:42:24.427Z,10.70
2018-04-29T23:44:52.703Z,11.70
2018-04-29T23:47:21.720Z,9.00
2018-04-29T23:49:50.021Z,9.27
2018-04-29T23:52:18.321Z,9.53
2018-04-29T23:54:46.564Z,8.60
2018-04-29T23:57:14.830Z,9.10
2018-04-29T23:59:43.106Z,8.93
